Time;durP1;ratioP1;P1;durP2;ratioP2;P2;SDS_P1;SDS_P2;PMS_P1;PMS_P2;Temp;Humidity;BMP_temperature;BMP_pressure;BME280_temperature;BME280_humidity;BME280_pressure;Samples;Min_cycle;Max_cycle;Signal;HPM_P1;HPM_P2
2023/05/12 00:01:34;;;;;;;9.90;5.03;;;;;;;;;;5092666;28;20034;-63
2023/05/12 00:04:01;;;;;;;9.30;4.38;;;;;;;;;;5092533;28;20066;-63
2023/05/12 00:06:28;;;;;;;6.38;4.43;;;;;;;;;;5089262;28;20104;-63
2023/05/12 00:08:54;;;;;;;10.40;5.60;;;;;;;;;;5087638;28;20419;-63
2023/05/12 00:11:21;;;;;;;9.00;5.03;;;;;;;;;;5087314;28;20378;-63
2023/05/12 00:13:48;;;;;;;6.50;4.82;;;;;;;;;;5087563;28;20031;-64
2023/05/12 00:16:17;;;;;;;11.80;5.25;;;;;;;;;;5089831;28;20383;-63
2023/05/12 00:18:44;;;;;;;6.28;4.95;;;;;;;;;;5092275;28;20364;-63
2023/05/12 00:21:11;;;;;;;11.48;6.38;;;;;;;;;;5092013;28;20028;-63
2023/05/12 00:23:38;;;;;;;9.75;6.18;;;;;;;;;;5092489;28;20027;-64
2023/05/12 00:26:05;;;;;;;7.18;5.38;;;;;;;;;;5092611;28;20415;-63
2023/05/12 00:28:32;;;;;;;9.05;5.88;;;;;;;;;;5089613;28;20035;-63
2023/05/12 00:31:02;;;;;;;8.93;5.75;;;;;;;;;;5087214;28;20467;-63
2023/05/12 00:33:30;;;;;;;9.40;5.78;;;;;;;;;;5086916;28;20425;-63
2023/05/12 00:35:59;;;;;;;13.95;5.35;;;;;;;;;;5089660;28;20736;-63
2023/05/12 00:38:26;;;;;;;9.05;6.10;;;;;;;;;;5093104;28;20042;-63
2023/05/12 00:40:53;;;;;;;9.70;5.57;;;;;;;;;;5096362;28;20024;-63
2023/05/12 00:43:20;;;;;;;16.30;5.87;;;;;;;;;;5096415;28;20106;-63
2023/05/12 00:45:47;;;;;;;11.53;6.70;;;;;;;;;;5096369;28;20498;-63
2023/05/12 00:48:13;;;;;;;8.50;5.77;;;;;;;;;;5096451;28;20031;-63
2023/05/12 00:50:40;;;;;;;15.03;6.80;;;;;;;;;;5093972;28;20053;-64
2023/05/12 00:53:07;;;;;;;9.13;6.03;;;;;;;;;;5091453;28;20031;-63
2023/05/12 00:55:35;;;;;;;10.37;6.00;;;;;;;;;;5090801;28;20081;-63
2023/05/12 00:58:02;;;;;;;14.50;6.00;;;;;;;;;;5091037;28;20042;-62
2023/05/12 01:00:29;;;;;;;12.20;6.10;;;;;;;;;;5092607;28;20031;-63
2023/05/12 01:02:59;;;;;;;6.90;4.93;;;;;;;;;;5095943;28;20016;-63
2023/05/12 01:05:30;;;;;;;10.60;7.07;;;;;;;;;;5094760;28;20374;-63
2023/05/12 01:07:59;;;;;;;48.23;7.20;;;;;;;;;;5095786;28;20024;-63
2023/05/12 01:10:26;;;;;;;8.70;5.53;;;;;;;;;;5095797;28;20501;-63
2023/05/12 01:12:52;;;;;;;6.80;5.43;;;;;;;;;;5093630;28;20555;-63
2023/05/12 01:15:19;;;;;;;10.13;6.23;;;;;;;;;;5090846;28;20028;-63
2023/05/12 01:17:53;;;;;;;6.70;5.23;;;;;;;;;;5090732;28;20466;-63
2023/05/12 01:20:22;;;;;;;9.00;5.68;;;;;;;;;;5090673;28;20023;-63
2023/05/12 01:22:49;;;;;;;8.40;5.83;;;;;;;;;;5091815;28;20530;-63
2023/05/12 01:25:19;;;;;;;9.20;5.03;;;;;;;;;;5095560;28;20028;-63
2023/05/12 01:27:46;;;;;;;8.20;4.57;;;;;;;;;;5095293;28;20059;-62
2023/05/12 01:30:16;;;;;;;16.20;5.10;;;;;;;;;;5095895;28;20109;-62
2023/05/12 01:32:43;;;;;;;8.17;3.90;;;;;;;;;;5095534;28;20103;-63
2023/05/12 01:35:10;;;;;;;7.67;4.67;;;;;;;;;;5094005;28;20081;-63
2023/05/12 01:37:37;;;;;;;7.87;4.27;;;;;;;;;;5090229;28;20032;-62
2023/05/12 01:40:04;;;;;;;11.83;4.53;;;;;;;;;;5090347;28;20020;-63
2023/05/12 01:42:31;;;;;;;8.60;4.93;;;;;;;;;;5090289;28;20091;-62
2023/05/12 01:44:58;;;;;;;5.60;4.07;;;;;;;;;;5090883;28;20433;-63
2023/05/12 01:47:25;;;;;;;7.03;4.23;;;;;;;;;;5094546;28;20028;-63
2023/05/12 01:49:53;;;;;;;7.87;4.13;;;;;;;;;;5095302;28;20052;-62
2023/05/12 01:52:20;;;;;;;5.63;3.97;;;;;;;;;;5095318;28;20368;-62
2023/05/12 01:54:46;;;;;;;5.97;3.73;;;;;;;;;;5095047;28;20028;-63
2023/05/12 01:57:13;;;;;;;6.80;4.17;;;;;;;;;;5094177;28;20111;-63
2023/05/12 01:59:40;;;;;;;4.87;3.30;;;;;;;;;;5089907;28;20051;-62
2023/05/12 02:02:07;;;;;;;4.20;3.33;;;;;;;;;;5089997;28;20024;-63
2023/05/12 02:04:33;;;;;;;7.17;4.40;;;;;;;;;;5089562;28;20024;-63
2023/05/12 02:07:00;;;;;;;6.47;3.87;;;;;;;;;;5089879;28;20020;-62
2023/05/12 02:09:27;;;;;;;4.47;3.70;;;;;;;;;;5094810;28;20039;-62
2023/05/12 02:11:54;;;;;;;5.53;3.50;;;;;;;;;;5094774;28;20020;-62
2023/05/12 02:14:21;;;;;;;6.27;3.50;;;;;;;;;;5094740;28;20024;-62
2023/05/12 02:16:51;;;;;;;5.13;3.70;;;;;;;;;;5094516;28;20035;-62
2023/05/12 02:19:19;;;;;;;4.87;3.40;;;;;;;;;;5094559;28;20672;-62
2023/05/12 02:21:46;;;;;;;5.53;3.97;;;;;;;;;;5087909;28;20432;-62
2023/05/12 02:24:15;;;;;;;6.40;3.83;;;;;;;;;;5089566;28;20027;-62
2023/05/12 02:26:44;;;;;;;5.13;3.73;;;;;;;;;;5089730;28;20024;-62
2023/05/12 02:29:11;;;;;;;4.77;3.33;;;;;;;;;;5089530;28;20027;-62
2023/05/12 02:31:38;;;;;;;5.37;3.23;;;;;;;;;;5094001;28;20016;-63
2023/05/12 02:34:04;;;;;;;5.60;4.10;;;;;;;;;;5094329;28;20418;-62
2023/05/12 02:36:31;;;;;;;4.80;3.87;;;;;;;;;;5094138;28;20031;-62
2023/05/12 02:38:58;;;;;;;8.77;4.67;;;;;;;;;;5093856;28;20028;-62
2023/05/12 02:41:25;;;;;;;3.80;2.70;;;;;;;;;;5094355;28;20020;-62
2023/05/12 02:43:52;;;;;;;4.93;3.83;;;;;;;;;;5089546;28;20032;-62
2023/05/12 02:46:19;;;;;;;4.47;3.77;;;;;;;;;;5089195;28;20065;-62
2023/05/12 02:48:46;;;;;;;7.97;3.97;;;;;;;;;;5089191;28;20408;-63
2023/05/12 02:51:12;;;;;;;5.73;3.47;;;;;;;;;;5088785;28;20024;-62
2023/05/12 02:53:39;;;;;;;5.70;3.57;;;;;;;;;;5092669;28;20028;-62
2023/05/12 02:56:06;;;;;;;6.07;3.90;;;;;;;;;;5093899;28;20026;-62
2023/05/12 02:58:33;;;;;;;6.73;4.30;;;;;;;;;;5093629;28;20028;-62
2023/05/12 03:00:59;;;;;;;5.83;4.17;;;;;;;;;;5094089;28;20031;-63
2023/05/12 03:03:26;;;;;;;8.00;4.00;;;;;;;;;;5093764;28;20020;-62
2023/05/12 03:05:53;;;;;;;6.13;4.43;;;;;;;;;;5089906;28;20020;-63
2023/05/12 03:08:20;;;;;;;5.33;3.73;;;;;;;;;;5088409;28;20089;-62
2023/05/12 03:10:47;;;;;;;6.47;3.73;;;;;;;;;;5088880;28;20020;-62
2023/05/12 03:13:13;;;;;;;6.53;3.80;;;;;;;;;;5088491;28;20100;-63
2023/05/12 03:15:40;;;;;;;7.80;3.13;;;;;;;;;;5091007;28;20036;-62
2023/05/12 03:18:07;;;;;;;11.20;4.63;;;;;;;;;;5093547;28;20031;-63
2023/05/12 03:20:34;;;;;;;6.13;3.93;;;;;;;;;;5093522;28;20096;-63
2023/05/12 03:23:00;;;;;;;11.23;4.97;;;;;;;;;;5093485;28;20016;-62
2023/05/12 03:25:27;;;;;;;7.10;3.90;;;;;;;;;;5093248;28;20420;-62
2023/05/12 03:27:54;;;;;;;5.57;4.07;;;;;;;;;;5090284;28;20016;-62
2023/05/12 03:30:21;;;;;;;6.23;4.10;;;;;;;;;;5088431;28;20035;-62
2023/05/12 03:32:47;;;;;;;8.20;4.53;;;;;;;;;;5088177;28;20031;-62
2023/05/12 03:35:15;;;;;;;5.70;3.63;;;;;;;;;;5088126;28;20023;-62
2023/05/12 03:37:41;;;;;;;6.70;4.90;;;;;;;;;;5090358;28;20043;-62
2023/05/12 03:40:08;;;;;;;5.37;3.67;;;;;;;;;;5093225;28;20093;-62
2023/05/12 03:42:35;;;;;;;6.63;4.17;;;;;;;;;;5092892;28;20088;-63
2023/05/12 03:45:02;;;;;;;5.37;3.87;;;;;;;;;;5093105;28;20475;-62
2023/05/12 03:47:29;;;;;;;4.70;3.73;;;;;;;;;;5093108;28;20024;-62
2023/05/12 03:49:57;;;;;;;9.50;4.27;;;;;;;;;;5090567;28;20348;-62
2023/05/12 03:52:26;;;;;;;10.50;4.10;;;;;;;;;;5087445;28;20107;-63
2023/05/12 03:54:53;;;;;;;5.17;3.77;;;;;;;;;;5087876;28;20052;-62
2023/05/12 03:57:20;;;;;;;10.67;4.73;;;;;;;;;;5087810;28;20217;-62
2023/05/12 03:59:47;;;;;;;5.30;3.83;;;;;;;;;;5089464;28;20052;-64
2023/05/12 04:02:14;;;;;;;4.43;3.67;;;;;;;;;;5092876;28;20031;-62
2023/05/12 04:04:40;;;;;;;7.27;4.87;;;;;;;;;;5092616;28;20027;-62
2023/05/12 04:07:07;;;;;;;5.50;4.27;;;;;;;;;;5092793;28;20020;-62
2023/05/12 04:09:34;;;;;;;4.67;3.90;;;;;;;;;;5091832;28;20566;-63
2023/05/12 04:12:01;;;;;;;5.30;4.27;;;;;;;;;;5090588;28;20369;-63
2023/05/12 04:14:27;;;;;;;5.60;4.27;;;;;;;;;;5087507;28;20595;-62
2023/05/12 04:16:54;;;;;;;13.13;5.07;;;;;;;;;;5087375;28;20062;-62
2023/05/12 04:19:21;;;;;;;6.27;4.47;;;;;;;;;;5087563;28;20020;-62
2023/05/12 04:21:48;;;;;;;6.90;4.60;;;;;;;;;;5088584;28;20025;-62
2023/05/12 04:24:15;;;;;;;6.37;4.50;;;;;;;;;;5092543;28;20024;-62
2023/05/12 04:26:42;;;;;;;7.00;4.43;;;;;;;;;;5092521;28;20024;-62
2023/05/12 04:29:08;;;;;;;10.70;5.07;;;;;;;;;;5092132;28;20024;-62
2023/05/12 04:31:35;;;;;;;8.80;4.30;;;;;;;;;;5092566;28;20028;-62
2023/05/12 04:34:02;;;;;;;5.57;3.97;;;;;;;;;;5091296;28;20028;-62
2023/05/12 04:36:29;;;;;;;10.67;4.83;;;;;;;;;;5087228;28;20402;-62
2023/05/12 04:38:56;;;;;;;8.40;4.50;;;;;;;;;;5087353;28;20104;-62
2023/05/12 04:41:22;;;;;;;6.33;4.87;;;;;;;;;;5087456;28;20039;-62
2023/05/12 04:43:49;;;;;;;6.43;4.03;;;;;;;;;;5087488;28;20039;-63
2023/05/12 04:46:16;;;;;;;10.87;3.67;;;;;;;;;;5092072;28;20073;-63
2023/05/12 04:48:44;;;;;;;4.90;3.80;;;;;;;;;;5092411;28;20548;-63
2023/05/12 04:51:10;;;;;;;5.40;4.13;;;;;;;;;;5092150;28;20036;-62
2023/05/12 04:53:37;;;;;;;6.47;4.00;;;;;;;;;;5092295;28;20548;-62
2023/05/12 04:56:04;;;;;;;5.67;4.03;;;;;;;;;;5091806;28;20027;-62
2023/05/12 04:58:31;;;;;;;4.03;3.03;;;;;;;;;;5087080;28;20036;-63
2023/05/12 05:00:58;;;;;;;4.17;3.10;;;;;;;;;;5087241;28;20032;-62
2023/05/12 05:03:25;;;;;;;28.10;5.03;;;;;;;;;;5087127;28;20382;-62
2023/05/12 05:05:51;;;;;;;7.60;4.87;;;;;;;;;;5087155;28;20021;-63
2023/05/12 05:08:18;;;;;;;6.50;4.43;;;;;;;;;;5091799;28;20525;-62
2023/05/12 05:10:45;;;;;;;7.03;4.70;;;;;;;;;;5092138;28;20101;-62
2023/05/12 05:13:12;;;;;;;8.73;5.00;;;;;;;;;;5092116;28;20538;-62
2023/05/12 05:15:38;;;;;;;10.33;6.20;;;;;;;;;;5092214;28;20103;-62
2023/05/12 05:18:05;;;;;;;8.20;5.00;;;;;;;;;;5092005;28;20074;-62
2023/05/12 05:20:33;;;;;;;9.80;5.30;;;;;;;;;;5087114;28;20024;-62
2023/05/12 05:23:00;;;;;;;6.10;4.67;;;;;;;;;;5088780;28;20489;-62
2023/05/12 05:25:26;;;;;;;7.90;5.33;;;;;;;;;;5090628;28;20379;-62
2023/05/12 05:27:54;;;;;;;5.90;4.27;;;;;;;;;;5090592;28;20384;-62
2023/05/12 05:30:21;;;;;;;6.20;4.10;;;;;;;;;;5094597;28;20031;-62
2023/05/12 05:32:47;;;;;;;4.30;3.53;;;;;;;;;;5095579;28;20032;-62
2023/05/12 05:35:14;;;;;;;9.07;5.43;;;;;;;;;;5095554;28;20050;-62
2023/05/12 05:37:41;;;;;;;6.50;4.00;;;;;;;;;;5095416;28;20032;-62
2023/05/12 05:40:08;;;;;;;4.37;3.40;;;;;;;;;;5095507;28;20099;-62
2023/05/12 05:42:35;;;;;;;10.63;3.13;;;;;;;;;;5090922;28;20036;-62
2023/05/12 05:45:02;;;;;;;10.67;4.37;;;;;;;;;;5090344;28;20055;-62
2023/05/12 05:47:30;;;;;;;9.87;4.33;;;;;;;;;;5090341;28;20032;-61
2023/05/12 05:49:57;;;;;;;11.90;4.60;;;;;;;;;;5090111;28;20024;-61
2023/05/12 05:52:23;;;;;;;6.63;5.03;;;;;;;;;;5093474;28;20020;-61
2023/05/12 05:54:50;;;;;;;5.43;4.57;;;;;;;;;;5095034;28;20032;-61
2023/05/12 05:57:17;;;;;;;6.97;4.83;;;;;;;;;;5095095;28;20075;-61
2023/05/12 05:59:44;;;;;;;6.97;4.80;;;;;;;;;;5094503;28;20036;-61
2023/05/12 06:02:10;;;;;;;6.83;4.93;;;;;;;;;;5095113;28;20374;-61
2023/05/12 06:04:37;;;;;;;6.63;5.70;;;;;;;;;;5091645;28;20135;-61
2023/05/12 06:07:04;;;;;;;4.50;3.70;;;;;;;;;;5089988;28;20024;-61
2023/05/12 06:09:31;;;;;;;19.03;5.87;;;;;;;;;;5089812;28;20020;-61
2023/05/12 06:11:58;;;;;;;5.13;4.20;;;;;;;;;;5089772;28;20032;-61
2023/05/12 06:14:24;;;;;;;6.80;5.33;;;;;;;;;;5092324;28;20048;-62
2023/05/12 06:16:51;;;;;;;11.43;6.40;;;;;;;;;;5094562;28;20016;-62
2023/05/12 06:19:18;;;;;;;8.23;5.20;;;;;;;;;;5094517;28;20027;-62
2023/05/12 06:21:45;;;;;;;6.33;4.13;;;;;;;;;;5094568;28;20020;-62
2023/05/12 06:24:11;;;;;;;9.00;5.57;;;;;;;;;;5094752;28;20421;-62
2023/05/12 06:26:38;;;;;;;6.60;4.80;;;;;;;;;;5091701;28;20102;-62
2023/05/12 06:29:08;;;;;;;11.57;5.73;;;;;;;;;;5089666;28;20024;-61
2023/05/12 06:31:35;;;;;;;8.27;5.30;;;;;;;;;;5089407;28;20486;-61
2023/05/12 06:34:02;;;;;;;6.87;5.00;;;;;;;;;;5088863;28;20024;-62
2023/05/12 06:36:29;;;;;;;5.80;3.97;;;;;;;;;;5091213;28;20027;-62
2023/05/12 06:38:56;;;;;;;10.83;5.80;;;;;;;;;;5094332;28;20532;-62
2023/05/12 06:41:23;;;;;;;7.87;5.93;;;;;;;;;;5094262;28;20099;-62
2023/05/12 06:43:51;;;;;;;5.00;4.00;;;;;;;;;;5094180;28;20028;-62
2023/05/12 06:46:18;;;;;;;13.60;5.33;;;;;;;;;;5094054;28;20036;-63
2023/05/12 06:48:45;;;;;;;6.67;4.53;;;;;;;;;;5091796;28;20069;-62
2023/05/12 06:51:12;;;;;;;11.10;5.37;;;;;;;;;;5088809;28;20026;-62
2023/05/12 06:53:40;;;;;;;7.90;5.43;;;;;;;;;;5088527;28;20106;-62
2023/05/12 06:56:07;;;;;;;7.30;4.93;;;;;;;;;;5088898;28;20099;-62
2023/05/12 06:58:35;;;;;;;7.07;4.63;;;;;;;;;;5090507;28;20032;-62
2023/05/12 07:01:01;;;;;;;6.03;4.87;;;;;;;;;;5093870;28;20539;-62
2023/05/12 07:03:31;;;;;;;6.33;5.30;;;;;;;;;;5093674;28;20032;-63
2023/05/12 07:05:58;;;;;;;7.23;5.70;;;;;;;;;;5093829;28;20442;-62
2023/05/12 07:08:24;;;;;;;6.27;4.77;;;;;;;;;;5093584;28;20486;-62
2023/05/12 07:10:51;;;;;;;10.33;6.13;;;;;;;;;;5091479;28;20089;-62
2023/05/12 07:13:18;;;;;;;8.17;5.83;;;;;;;;;;5088520;28;20034;-62
2023/05/12 07:15:45;;;;;;;8.93;5.93;;;;;;;;;;5088612;28;20020;-64
2023/05/12 07:18:12;;;;;;;10.27;6.40;;;;;;;;;;5088437;28;20032;-62
2023/05/12 07:20:39;;;;;;;19.13;5.03;;;;;;;;;;5089701;28;20028;-62
2023/05/12 07:23:06;;;;;;;8.20;5.30;;;;;;;;;;5093451;28;20098;-63
2023/05/12 07:25:32;;;;;;;8.73;5.47;;;;;;;;;;5093276;28;20031;-63
2023/05/12 07:27:59;;;;;;;10.90;5.90;;;;;;;;;;5093021;28;20024;-62
2023/05/12 07:30:26;;;;;;;7.87;5.77;;;;;;;;;;5093307;28;20103;-62
2023/05/12 07:32:53;;;;;;;13.47;6.37;;;;;;;;;;5092153;28;20028;-62
2023/05/12 07:35:20;;;;;;;8.23;5.03;;;;;;;;;;5088035;28;20027;-62
2023/05/12 07:37:47;;;;;;;9.23;5.50;;;;;;;;;;5088084;28;20036;-62
2023/05/12 07:40:14;;;;;;;5.63;4.70;;;;;;;;;;5088198;28;20028;-63
2023/05/12 07:42:40;;;;;;;8.27;5.23;;;;;;;;;;5088345;28;20035;-63
2023/05/12 07:45:07;;;;;;;4.87;3.93;;;;;;;;;;5091870;28;20095;-62
2023/05/12 07:47:34;;;;;;;7.63;4.97;;;;;;;;;;5093021;28;20158;-63
2023/05/12 07:50:01;;;;;;;8.33;4.97;;;;;;;;;;5093137;28;20073;-62
2023/05/12 07:52:28;;;;;;;13.83;4.93;;;;;;;;;;5092886;28;20379;-63
2023/05/12 07:54:56;;;;;;;6.63;5.67;;;;;;;;;;5092641;28;20020;-62
2023/05/12 07:57:23;;;;;;;14.40;5.80;;;;;;;;;;5087735;28;20027;-62
2023/05/12 07:59:50;;;;;;;8.57;5.37;;;;;;;;;;5087663;28;20048;-63
2023/05/12 08:02:17;;;;;;;10.53;4.73;;;;;;;;;;5087472;28;20016;-63
2023/05/12 08:04:43;;;;;;;7.37;5.93;;;;;;;;;;5087766;28;20429;-62
2023/05/12 08:07:10;;;;;;;7.23;5.17;;;;;;;;;;5092584;28;20028;-63
2023/05/12 08:09:37;;;;;;;6.53;5.07;;;;;;;;;;5092676;28;20062;-63
2023/05/12 08:12:04;;;;;;;7.03;5.13;;;;;;;;;;5092714;28;20031;-62
2023/05/12 08:14:30;;;;;;;7.67;5.63;;;;;;;;;;5092547;28;20029;-62
2023/05/12 08:16:57;;;;;;;10.13;4.67;;;;;;;;;;5092571;28;20028;-62
2023/05/12 08:19:24;;;;;;;6.27;4.33;;;;;;;;;;5087240;28;20020;-63
2023/05/12 08:21:51;;;;;;;7.40;4.97;;;;;;;;;;5087526;28;20448;-62
2023/05/12 08:24:17;;;;;;;8.10;4.93;;;;;;;;;;5087662;28;20024;-63
2023/05/12 08:26:44;;;;;;;5.13;4.00;;;;;;;;;;5087414;28;20027;-63
2023/05/12 08:29:11;;;;;;;5.03;3.57;;;;;;;;;;5091847;28;20027;-63
2023/05/12 08:31:38;;;;;;;8.37;4.67;;;;;;;;;;5092545;28;20024;-63
2023/05/12 08:34:05;;;;;;;5.30;3.83;;;;;;;;;;5092471;28;20025;-63
2023/05/12 08:36:32;;;;;;;7.57;4.60;;;;;;;;;;5092238;28;20084;-62
2023/05/12 08:38:58;;;;;;;6.53;4.50;;;;;;;;;;5092117;28;20043;-62
2023/05/12 08:41:32;;;;;;;5.63;3.50;;;;;;;;;;5088076;28;20023;-62
2023/05/12 08:43:59;;;;;;;4.27;3.53;;;;;;;;;;5087102;28;20020;-62
2023/05/12 08:46:26;;;;;;;4.73;4.03;;;;;;;;;;5087485;28;20023;-62
2023/05/12 08:48:53;;;;;;;6.80;5.10;;;;;;;;;;5087203;28;20031;-63
2023/05/12 08:51:26;;;;;;;7.83;4.63;;;;;;;;;;5090723;28;20474;-63
2023/05/12 08:53:53;;;;;;;4.90;4.00;;;;;;;;;;5092730;28;20099;-62
2023/05/12 08:56:20;;;;;;;11.13;4.47;;;;;;;;;;5093440;28;20440;-62
2023/05/12 08:58:47;;;;;;;4.77;3.87;;;;;;;;;;5096329;28;20375;-62
2023/05/12 09:01:14;;;;;;;6.57;4.03;;;;;;;;;;5096271;28;20024;-62
2023/05/12 09:03:41;;;;;;;5.77;4.10;;;;;;;;;;5091753;28;20024;-62
2023/05/12 09:06:09;;;;;;;5.80;4.60;;;;;;;;;;5091118;28;20032;-63
2023/05/12 09:08:36;;;;;;;3.97;3.17;;;;;;;;;;5090535;28;20034;-62
2023/05/12 09:11:03;;;;;;;5.67;3.93;;;;;;;;;;5091010;28;20024;-62
2023/05/12 09:13:30;;;;;;;4.33;3.60;;;;;;;;;;5094323;28;20024;-62
2023/05/12 09:15:57;;;;;;;6.93;4.47;;;;;;;;;;5095984;28;20016;-63
2023/05/12 09:18:24;;;;;;;5.03;3.63;;;;;;;;;;5095946;28;20032;-62
2023/05/12 09:20:51;;;;;;;4.73;3.50;;;;;;;;;;5095863;28;20024;-62
2023/05/12 09:23:19;;;;;;;7.33;5.13;;;;;;;;;;5095835;28;20099;-62
2023/05/12 09:25:46;;;;;;;11.10;4.27;;;;;;;;;;5091544;28;20475;-62
2023/05/12 09:28:12;;;;;;;12.73;5.73;;;;;;;;;;5090761;28;20030;-62
2023/05/12 09:30:41;;;;;;;7.63;4.07;;;;;;;;;;5090656;28;20032;-62
2023/05/12 09:33:08;;;;;;;6.40;4.57;;;;;;;;;;5090555;28;20088;-62
2023/05/12 09:35:42;;;;;;;6.47;5.17;;;;;;;;;;5093527;28;20024;-62
2023/05/12 09:38:10;;;;;;;7.43;4.43;;;;;;;;;;5095429;28;20036;-62
2023/05/12 09:40:36;;;;;;;6.30;3.73;;;;;;;;;;5095187;28;20027;-62
2023/05/12 09:43:05;;;;;;;6.40;3.83;;;;;;;;;;5095541;28;20028;-62
2023/05/12 09:45:36;;;;;;;9.33;4.27;;;;;;;;;;5095434;28;20073;-62
2023/05/12 09:48:12;;;;;;;5.00;4.00;;;;;;;;;;5091793;28;20024;-62
2023/05/12 09:50:46;;;;;;;5.10;3.93;;;;;;;;;;5090144;28;20074;-62
2023/05/12 09:53:13;;;;;;;5.40;4.30;;;;;;;;;;5089774;28;20027;-62
2023/05/12 09:55:43;;;;;;;8.03;4.73;;;;;;;;;;5090249;28;20063;-63
2023/05/12 09:58:10;;;;;;;4.23;3.53;;;;;;;;;;5093482;28;20493;-62
2023/05/12 10:00:40;;;;;;;6.33;3.97;;;;;;;;;;5094895;28;20102;-63
2023/05/12 10:03:12;;;;;;;7.67;4.50;;;;;;;;;;5094996;28;20027;-62
2023/05/12 10:05:50;;;;;;;5.43;3.70;;;;;;;;;;5095072;28;20406;-62
2023/05/12 10:08:30;;;;;;;6.87;4.67;;;;;;;;;;5094174;28;20032;-62
2023/05/12 10:10:58;;;;;;;7.07;4.53;;;;;;;;;;5090198;28;20031;-62
2023/05/12 10:13:25;;;;;;;6.10;4.37;;;;;;;;;;5089952;28;20024;-62
2023/05/12 10:15:55;;;;;;;5.63;4.53;;;;;;;;;;5089762;28;20027;-62
2023/05/12 10:18:23;;;;;;;5.83;4.43;;;;;;;;;;5089380;28;20548;-62
2023/05/12 10:20:51;;;;;;;5.23;4.07;;;;;;;;;;5093719;28;20427;-62
2023/05/12 10:23:18;;;;;;;8.73;3.93;;;;;;;;;;5094852;28;20030;-62
2023/05/12 10:25:45;;;;;;;5.27;3.73;;;;;;;;;;5094560;28;20020;-62
2023/05/12 10:28:12;;;;;;;7.63;4.57;;;;;;;;;;5094640;28;20459;-62
2023/05/12 10:30:39;;;;;;;6.63;4.10;;;;;;;;;;5094456;28;20078;-62
2023/05/12 10:33:08;;;;;;;7.90;4.70;;;;;;;;;;5089729;28;20546;-62
2023/05/12 10:35:36;;;;;;;5.67;3.97;;;;;;;;;;5089415;28;20027;-62
2023/05/12 10:38:10;;;;;;;5.17;4.00;;;;;;;;;;5089218;28;20059;-63
2023/05/12 10:40:37;;;;;;;5.00;3.77;;;;;;;;;;5089286;28;20024;-62
2023/05/12 10:43:05;;;;;;;6.77;3.57;;;;;;;;;;5093307;28;20363;-62
2023/05/12 10:45:37;;;;;;;4.97;3.83;;;;;;;;;;5094144;28;20031;-63
2023/05/12 10:48:08;;;;;;;5.47;4.03;;;;;;;;;;5094042;28;20024;-62
2023/05/12 10:50:34;;;;;;;7.40;3.90;;;;;;;;;;5094168;28;20064;-62
2023/05/12 10:53:01;;;;;;;5.27;3.83;;;;;;;;;;5094050;28;20107;-63
2023/05/12 10:55:32;;;;;;;7.60;3.70;;;;;;;;;;5089529;28;20035;-62
2023/05/12 10:58:25;;;;;;;5.33;3.87;;;;;;;;;;5088943;28;20036;-62
2023/05/12 11:00:53;;;;;;;3.90;3.07;;;;;;;;;;5085343;28;20073;-63
2023/05/12 11:03:23;;;;;;;7.33;4.23;;;;;;;;;;5088827;28;20023;-63
2023/05/12 11:06:02;;;;;;;6.23;3.50;;;;;;;;;;5093742;28;20085;-63
2023/05/12 11:08:30;;;;;;;3.50;2.87;;;;;;;;;;5093685;28;20371;-62
2023/05/12 11:10:57;;;;;;;6.27;3.83;;;;;;;;;;5093168;28;20068;-62
2023/05/12 11:13:24;;;;;;;7.40;4.07;;;;;;;;;;5093661;28;20031;-63
2023/05/12 11:15:51;;;;;;;8.20;3.43;;;;;;;;;;5093259;28;20111;-63
2023/05/12 11:18:22;;;;;;;3.40;2.70;;;;;;;;;;5088235;28;20032;-63
2023/05/12 11:20:49;;;;;;;4.23;3.13;;;;;;;;;;5087346;28;20028;-62
2023/05/12 11:23:27;;;;;;;3.80;2.97;;;;;;;;;;5088436;28;20036;-63
2023/05/12 11:25:54;;;;;;;3.73;3.10;;;;;;;;;;5088313;28;20124;-63
2023/05/12 11:28:21;;;;;;;4.73;3.37;;;;;;;;;;5093442;28;20475;-63
2023/05/12 11:30:52;;;;;;;7.00;3.20;;;;;;;;;;5093351;28;20486;-63
2023/05/12 11:33:22;;;;;;;4.47;3.03;;;;;;;;;;5093218;28;20047;-63
2023/05/12 11:35:49;;;;;;;3.93;2.93;;;;;;;;;;5093359;28;20101;-63
2023/05/12 11:38:17;;;;;;;4.37;3.43;;;;;;;;;;5091882;28;20149;-63
2023/05/12 11:40:44;;;;;;;4.53;3.10;;;;;;;;;;5088109;28;20021;-63
2023/05/12 11:43:13;;;;;;;4.37;3.10;;;;;;;;;;5088049;28;20564;-63
2023/05/12 11:45:40;;;;;;;6.90;3.43;;;;;;;;;;5088150;28;20026;-62
2023/05/12 11:48:08;;;;;;;4.67;2.80;;;;;;;;;;5087990;28;20020;-63
2023/05/12 11:50:38;;;;;;;5.67;3.70;;;;;;;;;;5092996;28;20031;-63
2023/05/12 11:53:05;;;;;;;5.40;3.73;;;;;;;;;;5092624;28;20048;-63
2023/05/12 11:55:32;;;;;;;4.37;3.27;;;;;;;;;;5092781;28;20077;-63
2023/05/12 11:58:03;;;;;;;3.63;2.93;;;;;;;;;;5092816;28;20405;-63
2023/05/12 12:00:31;;;;;;;3.73;3.00;;;;;;;;;;5092375;28;20024;-63
2023/05/12 12:03:11;;;;;;;4.73;3.40;;;;;;;;;;5087720;28;20383;-63
2023/05/12 12:05:39;;;;;;;4.80;3.07;;;;;;;;;;5087685;28;20099;-63
2023/05/12 12:08:15;;;;;;;6.97;3.43;;;;;;;;;;5087521;28;20055;-63
2023/05/12 12:10:46;;;;;;;6.07;3.97;;;;;;;;;;5088350;28;20024;-63
2023/05/12 12:13:13;;;;;;;5.53;3.17;;;;;;;;;;5092706;28;20138;-63
2023/05/12 12:15:40;;;;;;;4.40;3.73;;;;;;;;;;5092610;28;20056;-63
2023/05/12 12:18:06;;;;;;;5.83;4.20;;;;;;;;;;5092560;28;20093;-63
2023/05/12 12:20:33;;;;;;;5.77;4.50;;;;;;;;;;5091961;28;20026;-63
2023/05/12 12:23:00;;;;;;;7.00;4.27;;;;;;;;;;5091528;28;20052;-62
2023/05/12 12:25:27;;;;;;;5.63;4.23;;;;;;;;;;5087422;28;20037;-63
2023/05/12 12:27:54;;;;;;;4.83;2.90;;;;;;;;;;5087308;28;20115;-63
2023/05/12 12:30:21;;;;;;;3.80;3.00;;;;;;;;;;5087137;28;20085;-63
2023/05/12 12:32:48;;;;;;;6.80;4.00;;;;;;;;;;5087225;28;20012;-64
2023/05/12 12:35:15;;;;;;;7.27;4.57;;;;;;;;;;5092290;28;20511;-63
2023/05/12 12:37:41;;;;;;;3.60;3.00;;;;;;;;;;5091674;28;20063;-63
2023/05/12 12:40:08;;;;;;;8.23;5.63;;;;;;;;;;5092520;28;20016;-63
2023/05/12 12:42:36;;;;;;;7.00;4.87;;;;;;;;;;5092207;28;20044;-63
2023/05/12 12:45:07;;;;;;;6.10;4.27;;;;;;;;;;5091800;28;20420;-63
2023/05/12 12:47:34;;;;;;;7.73;5.70;;;;;;;;;;5087296;28;20039;-63
2023/05/12 12:50:01;;;;;;;7.83;4.67;;;;;;;;;;5087207;28;20020;-62
2023/05/12 12:52:27;;;;;;;15.67;4.93;;;;;;;;;;5086993;28;20044;-63
2023/05/12 12:54:55;;;;;;;5.93;4.67;;;;;;;;;;5087093;28;20024;-62
2023/05/12 12:57:22;;;;;;;9.30;5.27;;;;;;;;;;5092148;28;20101;-63
2023/05/12 12:59:49;;;;;;;11.63;6.27;;;;;;;;;;5092247;28;20024;-63
2023/05/12 13:02:16;;;;;;;9.27;5.73;;;;;;;;;;5092101;28;20020;-64
2023/05/12 13:04:43;;;;;;;14.07;5.67;;;;;;;;;;5092119;28;20028;-63
2023/05/12 13:07:09;;;;;;;10.23;5.67;;;;;;;;;;5091786;28;20383;-63
2023/05/12 13:09:36;;;;;;;5.43;4.70;;;;;;;;;;5086858;28;20379;-63
2023/05/12 13:12:03;;;;;;;8.33;5.47;;;;;;;;;;5086695;28;20044;-63
2023/05/12 13:14:30;;;;;;;7.00;5.63;;;;;;;;;;5087075;28;20028;-62
2023/05/12 13:16:57;;;;;;;7.37;5.23;;;;;;;;;;5086843;28;20032;-62
2023/05/12 13:19:23;;;;;;;12.00;7.20;;;;;;;;;;5091313;28;20020;-63
2023/05/12 13:21:50;;;;;;;8.30;6.10;;;;;;;;;;5092022;28;20016;-63
2023/05/12 13:24:17;;;;;;;11.43;6.93;;;;;;;;;;5091938;28;20024;-63
2023/05/12 13:26:44;;;;;;;9.67;6.60;;;;;;;;;;5091860;28;20028;-64
2023/05/12 13:29:10;;;;;;;10.20;7.03;;;;;;;;;;5091598;28;20028;-63
2023/05/12 13:31:37;;;;;;;12.27;6.43;;;;;;;;;;5087149;28;20020;-64
2023/05/12 13:34:04;;;;;;;9.43;6.47;;;;;;;;;;5086898;28;20028;-63
2023/05/12 13:36:33;;;;;;;12.10;6.40;;;;;;;;;;5086679;28;20020;-63
2023/05/12 13:39:01;;;;;;;10.00;6.93;;;;;;;;;;5086562;28;20078;-63
2023/05/12 13:41:28;;;;;;;6.90;5.83;;;;;;;;;;5090724;28;20047;-63
2023/05/12 13:43:55;;;;;;;7.43;5.33;;;;;;;;;;5093354;28;20468;-63
2023/05/12 13:46:21;;;;;;;29.83;6.67;;;;;;;;;;5095393;28;20032;-63
2023/05/12 13:48:50;;;;;;;9.30;6.07;;;;;;;;;;5095360;28;20024;-63
2023/05/12 13:51:16;;;;;;;12.13;6.73;;;;;;;;;;5095379;28;20048;-63
2023/05/12 13:53:43;;;;;;;9.83;6.30;;;;;;;;;;5090973;28;20020;-63
2023/05/12 13:56:10;;;;;;;17.60;6.77;;;;;;;;;;5090230;28;20039;-63
2023/05/12 13:58:37;;;;;;;10.40;7.33;;;;;;;;;;5090081;28;20048;-63
2023/05/12 14:01:03;;;;;;;7.77;6.20;;;;;;;;;;5089487;28;20517;-63
2023/05/12 14:03:30;;;;;;;5.80;4.23;;;;;;;;;;5093349;28;20023;-63
2023/05/12 14:05:57;;;;;;;9.40;6.53;;;;;;;;;;5095097;28;20441;-63
2023/05/12 14:08:24;;;;;;;7.83;6.30;;;;;;;;;;5095036;28;20024;-63
2023/05/12 14:10:50;;;;;;;11.33;5.80;;;;;;;;;;5094814;28;20468;-63
2023/05/12 14:13:17;;;;;;;10.37;5.77;;;;;;;;;;5094893;28;20024;-63
2023/05/12 14:15:44;;;;;;;7.90;5.33;;;;;;;;;;5091284;28;20461;-63
2023/05/12 14:18:11;;;;;;;5.07;4.33;;;;;;;;;;5089131;28;20040;-63
2023/05/12 14:20:37;;;;;;;10.20;6.23;;;;;;;;;;5089908;28;20028;-64
2023/05/12 14:23:04;;;;;;;7.17;5.17;;;;;;;;;;5089568;28;20028;-64
2023/05/12 14:25:31;;;;;;;5.97;4.70;;;;;;;;;;5092456;28;20141;-64
2023/05/12 14:27:58;;;;;;;7.13;4.60;;;;;;;;;;5094508;28;20425;-64
2023/05/12 14:30:25;;;;;;;9.07;4.57;;;;;;;;;;5094457;28;20016;-63
2023/05/12 14:32:52;;;;;;;5.20;4.30;;;;;;;;;;5094535;28;20023;-64
2023/05/12 14:35:19;;;;;;;10.80;5.07;;;;;;;;;;5093927;28;20579;-63
2023/05/12 14:37:45;;;;;;;5.67;4.03;;;;;;;;;;5091140;28;20036;-63
2023/05/12 14:40:13;;;;;;;9.10;5.30;;;;;;;;;;5089379;28;20027;-63
2023/05/12 14:42:41;;;;;;;8.13;5.43;;;;;;;;;;5089253;28;20441;-64